Op dit moment wordt er hard gewerkt aan deze versie van Weerstation-Wijk.nl
Het kan zijn dat er dingen nog niet helemaal kloppen of goed werken.

We konden geen weer-waarchuwingen ophalen. Ga rechtstreeks naar de Meteoalarm site : www.meteoalarm.eu en controleer daar .


Weerstation-Wijk.nl. Voor het weer van Wijk bij Duurstede en omstreken



Bezoek ook deze websites:

Template documentation
and downloads

And another site



METAR rapporten vliegvelden

   
EHVK - Volkel Rnlafb, Netherlands
Afstand tot: ZW 18 km
Gewijzigd: Jun 21 2024 2:55 am
Bewolking  
Bewolking  
   Wind: NNW 7.4 km/h
Wind: NNW 7.4 km/h
Temperatuur: 16°C
Dauwpunt: 14°C
Vochtigheid: 88%
Barometer: 1014 hPa
Bewolking: Bewolking
Zicht: meer dan 10 km
Bewolking: Licht bewolkt 2600 ft,
Grotendeels bewolkt 5000 ft,
Bewolking 6000 ft
EHVK 210055Z AUTO 34004KT 320V020 9999 FEW026 BKN050 OVC060 16/14 Q1014 BLU
EDLV - Niederrhein, Germany
Afstand tot: ZO 25 km
Gewijzigd: Jun 21 2024 2:50 am
Grotendeels bewolkt  
Grotendeels bewolkt  
   Wind: varieert 3.7 km/h
Wind: varieert 3.7 km/h
Temperatuur: 17°C
Dauwpunt: 14°C
Vochtigheid: 83%
Barometer: 1014 hPa
Bewolking: Grotendeels bewolkt
Zicht: meer dan 10 km
Bewolking: Grotendeels bewolkt 4500 ft,
Grotendeels bewolkt 5800 ft
EDLV 210050Z AUTO VRB02KT 9999 // BKN045/// BKN058/// 17/14 Q1014
EHDL - Deelen Rnlafb, Netherlands
Afstand tot: N 35 km
Gewijzigd: Jun 21 2024 2:55 am
Bewolking  
Bewolking  
   Wind: NNO 9.3 km/h
Wind: NNO 9.3 km/h
Temperatuur: 16°C
Dauwpunt: 13°C
Vochtigheid: 83%
Barometer: 1015 hPa
Bewolking: Bewolking
Zicht: meer dan 10 km
Bewolking: Gedeeltelijk bewolkt 8600 ft,
Bewolking 9500 ft
EHDL 210055Z AUTO 02005KT 310V080 9999 SCT086 OVC095 16/13 Q1015 BLU
EHEH - Eindhoven Rnlafb, Netherlands
Afstand tot: ZW 48 km
Gewijzigd: Jun 21 2024 2:55 am
Bewolking  
Bewolking  
   Wind: Noorden 7.4 km/h
Wind: Noorden 7.4 km/h
Temperatuur: 16°C
Dauwpunt: 14°C
Vochtigheid: 88%
Barometer: 1014 hPa
Bewolking: Bewolking
Zicht: meer dan 10 km
Bewolking: Grotendeels bewolkt 3700 ft,
Grotendeels bewolkt 8900 ft,
Bewolking 15000 ft
EHEH 210055Z AUTO 36004KT 330V030 9999 BKN037 BKN089 OVC150 16/14 Q1014 BLU
EHGR - Gilze-Rijen Rnla, Netherlands
Afstand tot: WZW 70 km
Gewijzigd: Jun 21 2024 2:55 am
Bewolking  
Bewolking  
   Wind: Noorden 11.1 km/h
Wind: Noorden 11.1 km/h
Temperatuur: 17°C
Dauwpunt: 14°C
Vochtigheid: 83%
Barometer: 1014 hPa
Bewolking: Bewolking
Zicht: meer dan 10 km
Bewolking: Bewolking 4300 ft
EHGR 210055Z AUTO 36006KT 320V040 9999 OVC043 17/14 Q1014 BLU
EBBL - Kleine-Brogel(Ba, Belgium
Afstand tot: ZZW 71 km
Gewijzigd: Jun 21 2024 2:55 am
Licht bewolkt  
Licht bewolkt  
   Wind: NNW 5.6 km/h
Wind: NNW 5.6 km/h
Temperatuur: 15°C
Dauwpunt: 14°C
Vochtigheid: 94%
Barometer: 1014 hPa
Bewolking: Licht bewolkt
Zicht: meer dan 10 km
Bewolking: Licht bewolkt 4200 ft
EBBL 210055Z AUTO 33003KT 9999 FEW042/// 15/14 Q1014 BLU

Script ontwikkeld door  Saratoga-weather.org Aangepast voor de template door  Weerstation Leuven

U vindt ons ook hier:

UK Metoffice

WeatherCloud

AWEKAS

Apparatuur in gebruik:

Weerstation
Davis VP2 + EU Wireless

Weerprogramma
Weather Display

Webleverancier
WebReus.nl

Davis VP2 + EU Wireless

Weather Display

WebReus.nl


Weerstation-Wijk.nl. Voor het weer van Wijk bij Duurstede en omstreken